Flight Track Log - Related Links

Times and Time Zones

All times are in EDT time to prevent confusion due to time zone crossing. See the RPA3161 flight status page for this flight to view local times or setup timezone preferences in your user account.

Time Position Orientation Groundspeed Altitude Reporting Facility
EDT Latitude Longitude Course Direction KTS MPH feet Rate Location/Type
Thu 12:27:00 PM 44.4364 -73.1319 195° South 160 184 2,300  Level Boston Center
Thu 12:28:00 PM 44.1690 -73.2616 195° South  Level FlightAware Approximate
Thu 12:28:00 PM 44.3822 -73.1228 173° South 194 223 4,300  Level Boston Center
Thu 12:29:00 PM 44.0692 -73.2990 195° South  Level FlightAware Approximate
Thu 12:29:00 PM 44.3092 -73.1364 188° South 244 281 7,500  Level Boston Center
Thu 12:30:00 PM 43.9688 -73.3327 194° South  Level FlightAware Approximate
Thu 12:30:00 PM 44.2422 -73.1703 200° South 277 319 10,400  Level Boston Center
Thu 12:31:00 PM 43.8749 -73.3657 195° South  Level FlightAware Approximate
Thu 12:31:00 PM 44.1547 -73.2069 197° South 316 364 12,800  Level Boston Center
Thu 12:32:00 PM 43.7814 -73.4008 195° South  Level FlightAware Approximate
Thu 12:32:00 PM 44.0769 -73.2694 210° Southwest 328 377 16,000  Level Boston Center
Thu 12:33:00 PM 44.0014 -73.3433 215° Southwest 334 384 18,800 2,650 Climbing Boston Center
Thu 12:34:00 PM 43.9258 -73.4258 218° Southwest 352 405 21,300 2,350 Climbing Boston Center
Thu 12:35:00 PM 43.8417 -73.5022 213° Southwest 360 414 23,500 2,300 Climbing Boston Center
Thu 12:36:00 PM 43.7311 -73.5347 192° South 365 420 25,900 1,900 Climbing Boston Center
Thu 12:37:00 PM 43.6411 -73.5561 190° South 371 427 27,300 1,600 Climbing Boston Center
Thu 12:38:00 PM 43.5347 -73.5828 190° South 383 441 29,100 1,600 Climbing Boston Center
Thu 12:39:00 PM 43.4300 -73.6150 193° South 383 441 30,500 1,091 Climbing Boston Center
Thu 12:40:12 PM 43.3194 -73.6472 192° South 396 456 31,500 682 Climbing Boston Center
Thu 12:41:12 PM 43.1836 -73.6817 190° South 408 470 32,000 250 Climbing Boston Center
Thu 12:42:12 PM 43.0706 -73.7161 193° South 418 481 32,000  Level Boston Center
Thu 12:43:12 PM 42.9619 -73.7453 191° South 418 481 32,000  Level Boston Center
Thu 12:44:12 PM 42.8489 -73.7797 193° South 413 475 32,000  Level Boston Center
Thu 12:45:24 PM 42.7342 -73.8025 188° South 413 475 32,000  Level Boston Center
Thu 12:46:24 PM 42.5947 -73.7853 175° South 413 475 32,000  Level Boston Center
Thu 12:47:24 PM 42.4803 -73.7661 173° South 413 475 32,000  Level Boston Center
Thu 12:48:24 PM 42.3636 -73.7494 174° South 419 482 32,000  Level Boston Center
Thu 12:49:24 PM 42.2450 -73.7303 173° South 429 494 32,000  Level Boston Center
Thu 12:50:24 PM 42.1203 -73.6997 170° South 420 483 32,000  Level Boston Center
Thu 12:52:25 PM 41.8914 -73.7025 181° South 427 491 32,000  Level New York Center
Thu 12:53:26 PM 41.7744 -73.7167 185° South 422 486 32,000  Level New York Center
Thu 12:54:25 PM 41.6597 -73.7339 186° South 427 491 32,000  Level New York Center
Thu 12:55:26 PM 41.5344 -73.7475 185° South 427 491 32,000  Level New York Center
Thu 12:56:24 PM 41.4172 -73.7644 186° South 427 491 32,000  Level New York Center
Thu 12:57:25 PM 41.3022 -73.7814 186° South 427 491 32,000  Level New York Center
Thu 12:58:26 PM 41.1853 -73.8011 187° South 427 491 32,000  Level New York Center
Thu 12:59:24 PM 41.0953 -73.8933 218° Southwest 399 459 32,000  Level New York Center
Thu 01:00:24 PM 41.0256 -74.0139 233° Southwest 410 472 32,000  Level New York Center
Thu 01:01:24 PM 40.9533 -74.1367 232° Southwest 412 474 32,000 -496 Level New York Center
Thu 01:02:25 PM 40.8789 -74.2564 231° Southwest 425 489 31,000 -1,850 Descending New York Center
Thu 01:03:24 PM 40.8086 -74.3764 232° Southwest 426 490 28,300 -1,475 Descending New York Center
Thu 01:04:27 PM 40.7386 -74.4875 230° Southwest 411 473 28,000 -150 Descending New York Center
Thu 01:05:24 PM 40.6725 -74.6017 233° Southwest 405 466 28,000  Level New York Center
Thu 01:06:25 PM 40.6019 -74.7153 231° Southwest 405 466 28,000 -148 Level New York Center
Thu 01:07:26 PM 40.5317 -74.8203 229° Southwest 399 459 27,700 -655 Descending New York Center
Thu 01:08:24 PM 40.4553 -74.9222 225° Southwest 394 453 26,700 -1,008 Descending New York Center
Thu 01:09:25 PM 40.3850 -75.0244 228° Southwest 389 448 25,700 -1,475 Descending New York Center
Thu 01:10:26 PM 40.3147 -75.1208 226° Southwest 383 441 23,700 -2,136 Descending New York Center
Thu 01:11:23 PM 40.2794 -75.2247 246° West 336 387 21,500 -1,881 Descending New York Center
Thu 01:12:24 PM 40.2419 -75.3364 246° West 346 398 20,000 -738 Descending New York Center
Thu 01:13:25 PM 40.1572 -75.4258 219° Southwest 346 398 20,000  Level New York Center
Thu 01:14:26 PM 40.0897 -75.4947 218° Southwest 346 398 20,000  Level New York Center
Thu 01:15:26 PM 40.0189 -75.5983 228° Southwest 346 398 20,000  Level New York Center
Thu 01:16:24 PM 39.9614 -75.6783 227° Southwest 346 398 20,000 -356 Level New York Center
Thu 01:17:24 PM 39.8922 -75.7844 230° Southwest 351 404 19,300 -1,289 Descending New York Center
Thu 01:18:25 PM 39.8303 -75.8719 227° Southwest 345 397 17,400 -1,140 Descending New York Center
Thu 01:19:25 PM 39.7700 -75.9594 228° Southwest 352 405 17,000 -198 Descending New York Center
Thu 01:20:26 PM 39.7100 -76.0467 228° Southwest 344 396 17,000  Level New York Center
Thu 01:21:23 PM 39.6428 -76.1469 229° Southwest 338 389 17,000 -508 Level New York Center
Thu 01:22:24 PM 39.5847 -76.2286 227° Southwest 333 383 16,000 -1,481 Descending New York Center
Thu 01:24:01 PM 39.4833 -76.3667 226° Southwest 307 353 13,100 -1,529 Descending Potomac TRACON
Thu 01:25:01 PM 39.4333 -76.4333 226° Southwest 304 350 12,000 -750 Descending Potomac TRACON
Thu 01:26:01 PM 39.3500 -76.5000 212° Southwest 303 349 11,600 -600 Descending Potomac TRACON
Thu 01:27:01 PM 39.2833 -76.5667 218° Southwest 292 336 10,800 -800 Descending Potomac TRACON
Thu 01:28:01 PM 39.2167 -76.6167 210° Southwest 293 337 10,000 -381 Descending Potomac TRACON
Thu 01:29:07 PM 39.1500 -76.7000 224° Southwest 275 316 10,000  Level Potomac TRACON
Thu 01:30:07 PM 39.1333 -76.7833 256° West 281 323 10,000 -900 Level Potomac TRACON
Thu 01:31:07 PM 39.1000 -76.8833 247° West 278 320 8,200 -1,850 Descending Potomac TRACON
Thu 01:32:07 PM 39.0833 -76.9667 256° West 271 312 6,300 -1,950 Descending Potomac TRACON
Thu 01:33:07 PM 39.0500 -77.0667 247° West 271 312 4,300 -1,571 Descending Potomac TRACON
Thu 01:34:13 PM 39.0167 -77.1500 243° Southwest 250 288 3,000 -1,182 Descending Potomac TRACON

Login

Don't have an account? Register now (free) for customized features, flight alerts, and more!